Terminal Aerodrome Forecast
Issued by NWS

Home | Current Version | Previous Version | Graphics & Text | Print | Product List | Glossary On
Versions: 1 2 3 4 5 6 7 8 9 10 11 12 13 14 15 16 17 18 19 20
000
FTUS43 KMPX 191400 AAA
TAFAXN
TAF AMD
KAXN 191415Z 1914/2012 29005KT P6SM SCT003 SCT200
      TEMPO 1914/1916 2SM BR BKN003
     FM191700 32007KT P6SM SCT200
     FM200200 VRB02KT P6SM SCT200
     FM200600 00000KT 4SM BR SCT002
      TEMPO 2008/2012 1SM BR BKN001=

USA.gov is the U.S. government's official web portal to all federal, state and local government web resources and services.